Aviation Digital Data Service (ADDS)

Output produced by METARs form (0226 UTC 02 August 2014)
found at http://aviationweather.gov/adds/metars/
 
KRWI 020002Z 0200/0224 VRB05KT 4SM RA BR BKN006 OVC025 
     FM021200 VRB05KT P6SM VCSH BKN015 
     FM021600 VRB05KT 3SM SHRA BKN025 
     PROB30 0217/0221 TSRA BKN009CB